Time;durP1;ratioP1;P1;durP2;ratioP2;P2;SDS_P1;SDS_P2;PMS_P1;PMS_P2;Temp;Humidity;BMP_temperature;BMP_pressure;BME280_temperature;BME280_humidity;BME280_pressure;Samples;Min_cycle;Max_cycle;Signal;HPM_P1;HPM_P2
2022/10/13 00:00:39;;;;;;;35.65;18.23;;;;;;;11.44;84.45;98696.72;5091454;28;20057;-88
2022/10/13 00:03:04;;;;;;;34.28;18.40;;;;;;;11.49;84.95;98690.91;5091414;28;20059;-88
2022/10/13 00:05:30;;;;;;;34.08;18.48;;;;;;;11.49;84.60;98694.34;5090426;28;20060;-88
2022/10/13 00:07:56;;;;;;;35.45;19.63;;;;;;;11.40;85.13;98689.44;5084028;28;20084;-88
2022/10/13 00:10:24;;;;;;;34.47;19.20;;;;;;;11.38;84.68;98697.47;5085954;28;20063;-88
2022/10/13 00:12:50;;;;;;;32.88;18.75;;;;;;;11.39;85.08;98699.09;5084521;28;20055;-87
2022/10/13 00:15:16;;;;;;;35.88;18.88;;;;;;;11.41;84.80;98696.31;5087929;28;20044;-88
2022/10/13 00:17:41;;;;;;;34.90;18.75;;;;;;;11.31;84.67;98696.63;5078016;28;20911;-88
2022/10/13 00:20:09;;;;;;;33.58;19.52;;;;;;;11.24;84.56;98691.31;5089570;28;20120;-87
2022/10/13 00:22:35;;;;;;;40.58;20.65;;;;;;;11.09;85.42;98695.00;5085012;28;20387;-88
2022/10/13 00:25:01;;;;;;;37.08;18.40;;;;;;;11.08;85.39;98696.00;5076917;28;20028;-87
2022/10/13 00:27:26;;;;;;;33.13;18.13;;;;;;;11.10;85.46;98694.03;5085877;28;20116;-87
2022/10/13 00:29:52;;;;;;;28.38;17.92;;;;;;;11.17;85.32;98690.47;5082434;28;20036;-86
2022/10/13 00:32:17;;;;;;;29.85;17.85;;;;;;;11.16;84.91;98688.84;5090751;28;20106;-87
2022/10/13 00:34:43;;;;;;;28.85;17.50;;;;;;;11.15;84.48;98683.75;5089809;28;20028;-86
2022/10/13 00:37:08;;;;;;;35.20;18.63;;;;;;;11.17;84.36;98689.66;5090327;28;20035;-86
2022/10/13 00:39:36;;;;;;;34.50;18.15;;;;;;;11.17;84.08;98700.97;5075088;28;20048;-88
2022/10/13 00:42:03;;;;;;;31.00;16.70;;;;;;;11.17;84.24;98700.16;5092667;28;20058;-88
2022/10/13 00:45:05;;;;;;;34.42;18.30;;;;;;;11.15;84.42;98694.25;5094520;28;20464;-88
2022/10/13 00:47:47;;;;;;;32.33;17.33;;;;;;;11.17;83.88;98700.16;5076142;28;20621;-88
2022/10/13 00:50:19;;;;;;;;;;;;;;;11.16;83.68;98698.53;5079826;28;20400;-88
2022/10/13 00:52:47;;;;;;;29.95;16.75;;;;;;;11.05;83.63;98694.59;5079700;28;19912;-88
2022/10/13 00:55:20;;;;;;;27.35;15.15;;;;;;;11.09;83.65;98698.44;5094449;28;20032;-88
2022/10/13 00:57:54;;;;;;;26.52;16.17;;;;;;;11.14;83.58;98690.81;5088053;28;20036;-88
2022/10/13 01:00:23;;;;;;;35.03;18.17;;;;;;;11.11;83.65;98691.22;5087101;28;20526;-88
2022/10/13 01:02:49;;;;;;;32.58;15.80;;;;;;;11.17;83.83;98700.16;5081163;28;20111;-88
2022/10/13 01:05:17;;;;;;;27.27;14.93;;;;;;;11.10;83.30;98700.09;5084056;28;20412;-87
2022/10/13 01:07:47;;;;;;;19.60;13.40;;;;;;;11.11;82.79;98712.22;5076884;28;20045;-88
2022/10/13 01:10:15;;;;;;;23.98;13.25;;;;;;;11.06;82.17;98698.03;5075789;28;20098;-88
2022/10/13 01:13:25;;;;;;;22.15;13.98;;;;;;;11.10;83.10;98709.78;5099220;28;20091;-88
2022/10/13 01:16:03;;;;;;;26.45;14.57;;;;;;;11.13;82.75;98709.38;5092955;28;20032;-88
2022/10/13 01:18:47;;;;;;;24.48;15.02;;;;;;;11.11;83.04;98698.28;5082112;28;20078;-83
2022/10/13 01:21:32;;;;;;;26.33;15.98;;;;;;;11.15;82.92;98707.38;5087379;28;20345;-83
2022/10/13 01:24:35;;;;;;;25.73;14.07;;;;;;;11.11;82.94;98700.91;5087030;28;20036;-83
2022/10/13 01:27:04;;;;;;;20.50;12.57;;;;;;;11.07;83.01;98702.28;5086844;28;20077;-83
2022/10/13 01:30:05;;;;;;;21.98;13.15;;;;;;;11.08;82.70;98701.25;5088153;28;20036;-83
2022/10/13 01:32:58;;;;;;;22.35;14.48;;;;;;;11.12;82.43;98699.91;5085938;28;20033;-83
2022/10/13 01:35:47;;;;;;;26.77;15.38;;;;;;;11.09;82.58;98697.63;5087053;28;20086;-83
2022/10/13 01:38:32;;;;;;;24.88;14.32;;;;;;;11.01;82.15;98692.53;5081899;28;20082;-83
2022/10/13 01:41:34;;;;;;;22.48;14.27;;;;;;;11.02;82.54;98691.50;5086412;28;20106;-83
2022/10/13 01:44:14;;;;;;;26.30;14.50;;;;;;;11.06;82.75;98684.91;5088092;28;20448;-83
2022/10/13 01:46:42;;;;;;;31.20;15.45;;;;;;;11.01;82.63;98682.00;5079929;28;20107;-83
2022/10/13 01:49:16;;;;;;;28.92;15.88;;;;;;;11.05;82.78;98676.22;5081889;28;20037;-83
2022/10/13 01:51:44;;;;;;;28.25;15.65;;;;;;;11.09;83.28;98676.63;5084396;28;20071;-83
2022/10/13 01:54:10;;;;;;;26.70;15.77;;;;;;;10.96;83.22;98659.75;5102479;28;20054;-83
2022/10/13 01:56:35;;;;;;;20.50;13.35;;;;;;;10.97;82.77;98669.28;5090862;28;20039;-83
2022/10/13 01:59:10;;;;;;;26.42;15.25;;;;;;;10.92;82.58;98671.66;5087068;28;20066;-82
2022/10/13 02:01:59;;;;;;;28.17;15.82;;;;;;;10.85;82.95;98670.75;5087720;28;20039;-82
2022/10/13 02:05:16;;;;;;;24.95;15.15;;;;;;;10.84;82.78;98663.88;5087814;28;20044;-82
2022/10/13 02:07:48;;;;;;;23.95;14.75;;;;;;;10.88;83.07;98664.34;5087061;28;20051;-83
2022/10/13 02:10:29;;;;;;;28.63;15.25;;;;;;;10.89;82.77;98658.91;5086743;28;20068;-83
2022/10/13 02:13:01;;;;;;;30.52;16.40;;;;;;;10.90;82.67;98660.50;5081072;28;20047;-87
2022/10/13 02:15:41;;;;;;;29.00;16.25;;;;;;;10.88;82.86;98652.03;5078649;28;20037;-87
2022/10/13 02:18:10;;;;;;;32.50;16.50;;;;;;;10.85;83.53;98652.38;5092599;28;20095;-87
2022/10/13 02:20:38;;;;;;;29.33;16.67;;;;;;;10.73;83.81;98646.00;5078333;28;20082;-87
2022/10/13 02:23:11;;;;;;;28.58;16.50;;;;;;;10.63;83.96;98645.53;5087586;28;20044;-87
2022/10/13 02:25:38;;;;;;;30.95;16.02;;;;;;;10.69;84.27;98652.66;5088378;28;20131;-87
2022/10/13 02:28:05;;;;;;;26.27;15.73;;;;;;;10.71;83.37;98650.66;5090671;28;20040;-87
2022/10/13 02:30:33;;;;;;;26.02;15.68;;;;;;;10.72;83.70;98647.03;5083941;28;20068;-86
2022/10/13 02:33:01;;;;;;;30.65;17.20;;;;;;;10.69;84.62;98652.66;5080928;28;20424;-88
2022/10/13 02:35:29;;;;;;;26.08;15.93;;;;;;;10.69;84.51;98645.59;5088126;28;20422;-88
2022/10/13 02:37:55;;;;;;;33.17;16.52;;;;;;;10.70;84.56;98651.66;5086196;28;20038;-88
2022/10/13 02:40:21;;;;;;;27.63;15.90;;;;;;;10.69;84.17;98642.16;5080345;28;20036;-89
2022/10/13 02:42:46;;;;;;;27.02;15.20;;;;;;;10.72;84.52;98647.03;5087827;28;20040;-89
2022/10/13 02:45:11;;;;;;;28.40;15.70;;;;;;;10.65;84.81;98643.53;5083859;28;20480;-83
2022/10/13 02:47:37;;;;;;;32.85;16.92;;;;;;;10.64;84.75;98647.16;5079920;28;20036;-82
2022/10/13 02:50:04;;;;;;;26.95;16.02;;;;;;;10.64;85.00;98647.16;5082409;28;20036;-89
2022/10/13 02:52:30;;;;;;;28.77;16.20;;;;;;;10.61;85.23;98648.31;5063627;28;20035;-88
2022/10/13 02:54:55;;;;;;;25.85;15.77;;;;;;;10.57;85.45;98636.59;5064879;28;20032;-88
2022/10/13 02:57:21;;;;;;;30.65;17.10;;;;;;;10.59;85.41;98633.78;5092097;28;20518;-90
2022/10/13 02:59:47;;;;;;;32.88;17.23;;;;;;;10.57;85.26;98633.97;5092058;28;20114;-90
2022/10/13 03:02:13;;;;;;;32.35;17.02;;;;;;;10.55;85.71;98627.28;5091563;28;20525;-89
2022/10/13 03:04:39;;;;;;;31.90;17.10;;;;;;;10.52;86.05;98635.53;5089615;28;20047;-89
2022/10/13 03:07:04;;;;;;;36.67;17.63;;;;;;;10.47;85.93;98622.16;5076913;28;20032;-88
2022/10/13 03:09:30;;;;;;;31.63;17.98;;;;;;;10.56;85.74;98628.91;5088601;28;20046;-90
2022/10/13 03:11:55;;;;;;;31.42;17.63;;;;;;;10.57;85.15;98638.41;5084498;28;20579;-87
2022/10/13 03:14:20;;;;;;;30.98;16.95;;;;;;;10.54;85.62;98636.94;5079522;28;20052;-87
2022/10/13 03:16:46;;;;;;;32.28;15.43;;;;;;;10.57;85.27;98633.16;5082484;28;20119;-87
2022/10/13 03:19:11;;;;;;;31.15;16.27;;;;;;;10.54;84.63;98630.91;5091355;28;20706;-89
2022/10/13 03:21:38;;;;;;;29.45;17.10;;;;;;;10.44;86.63;98642.50;5076362;28;20041;-87
2022/10/13 03:24:05;;;;;;;27.77;16.63;;;;;;;10.45;85.73;98644.13;5090323;28;20032;-87
2022/10/13 03:26:32;;;;;;;28.75;15.23;;;;;;;10.50;85.49;98640.16;5092192;28;20028;-87
2022/10/13 03:28:57;;;;;;;29.40;16.35;;;;;;;10.50;84.29;98648.03;5087380;28;20072;-87
2022/10/13 03:31:23;;;;;;;27.45;15.52;;;;;;;10.53;84.67;98647.63;5078159;28;20066;-88
2022/10/13 03:33:50;;;;;;;30.50;15.52;;;;;;;10.57;84.57;98638.41;5090072;28;20036;-87
2022/10/13 03:36:17;;;;;;;34.22;16.95;;;;;;;10.59;84.52;98644.25;5085055;28;20077;-88
2022/10/13 03:38:42;;;;;;;29.30;15.95;;;;;;;10.56;84.63;98634.97;5083730;28;20024;-89
2022/10/13 03:41:17;;;;;;;31.77;16.80;;;;;;;10.58;84.80;98632.97;5088026;28;20074;-89
2022/10/13 03:43:44;;;;;;;33.42;17.08;;;;;;;10.56;85.18;98634.97;5086926;28;20392;-87
2022/10/13 03:46:13;;;;;;;31.17;16.63;;;;;;;10.60;85.64;98635.41;5076435;28;20028;-88
2022/10/13 03:48:39;;;;;;;30.17;16.83;;;;;;;10.57;85.35;98633.97;5088223;28;20023;-87
2022/10/13 03:51:07;;;;;;;31.17;17.30;;;;;;;10.59;85.34;98631.97;5082657;28;20043;-87
2022/10/13 03:53:33;;;;;;;33.60;16.92;;;;;;;10.59;85.45;98631.16;5080848;28;20040;-88
2022/10/13 03:56:00;;;;;;;30.17;17.45;;;;;;;10.56;85.66;98627.09;5091358;28;20118;-89
2022/10/13 03:58:27;;;;;;;28.45;16.38;;;;;;;10.53;86.45;98624.03;5083643;28;20557;-87
2022/10/13 04:00:54;;;;;;;33.53;18.05;;;;;;;10.50;86.97;98619.16;5082617;28;20043;-88
2022/10/13 04:03:20;;;;;;;31.02;17.00;;;;;;;10.54;86.95;98626.47;5076855;28;20575;-87
2022/10/13 04:05:46;;;;;;;31.17;18.30;;;;;;;10.61;87.42;98631.78;5083224;28;20056;-86
2022/10/13 04:08:13;;;;;;;34.40;17.55;;;;;;;10.61;87.00;98623.91;5084952;28;20094;-87
2022/10/13 04:10:39;;;;;;;30.73;17.58;;;;;;;10.68;86.68;98623.00;5085594;28;20098;-87
2022/10/13 04:13:05;;;;;;;30.25;17.13;;;;;;;10.68;85.94;98632.66;5089250;28;20048;-87
2022/10/13 04:15:36;;;;;;;30.38;16.75;;;;;;;10.58;85.66;98621.66;5091450;28;20040;-87
2022/10/13 04:18:03;;;;;;;36.95;17.42;;;;;;;10.62;85.93;98626.34;5078763;28;20097;-87
2022/10/13 04:20:29;;;;;;;30.02;17.17;;;;;;;10.72;85.59;98618.16;5084576;28;20032;-86
2022/10/13 04:22:54;;;;;;;36.13;17.85;;;;;;;10.84;85.44;98626.34;5081275;28;20037;-87
2022/10/13 04:25:19;;;;;;;34.22;17.05;;;;;;;10.88;85.64;98623.16;5094548;28;20036;-87
2022/10/13 04:27:47;;;;;;;33.03;17.27;;;;;;;10.89;85.55;98619.53;5079892;28;20032;-87
2022/10/13 04:30:13;;;;;;;29.55;16.85;;;;;;;10.88;85.42;98617.09;5083891;28;20042;-87
2022/10/13 04:32:39;;;;;;;33.13;17.63;;;;;;;10.88;85.80;98617.09;5059285;28;20029;-88
2022/10/13 04:35:05;;;;;;;32.90;17.85;;;;;;;10.93;85.18;98619.97;5085382;28;20111;-88
2022/10/13 04:37:31;;;;;;;30.38;17.70;;;;;;;10.93;85.60;98620.78;5085204;28;20142;-90
2022/10/13 04:39:56;;;;;;;31.77;17.05;;;;;;;10.92;85.81;98613.91;5094828;28;20058;-89
2022/10/13 04:42:22;;;;;;;30.83;16.92;;;;;;;10.91;85.79;98611.47;5081829;28;20109;-90
2022/10/13 04:44:47;;;;;;;33.95;18.60;;;;;;;10.80;85.90;98604.13;5092584;28;20522;-89
2022/10/13 04:47:14;;;;;;;31.80;17.15;;;;;;;10.85;86.14;98607.78;5088772;28;20028;-90
2022/10/13 04:49:40;;;;;;;32.63;17.00;;;;;;;10.76;86.33;98602.88;5094646;28;20081;-90
2022/10/13 04:52:05;;;;;;;31.60;17.58;;;;;;;10.67;86.65;98594.28;5083606;28;20039;-90
2022/10/13 04:54:31;;;;;;;35.50;17.23;;;;;;;10.57;87.02;98593.81;5091486;28;20040;-89
2022/10/13 04:56:58;;;;;;;32.63;17.98;;;;;;;10.65;87.63;98606.78;5109788;28;20036;-89
2022/10/13 04:59:23;;;;;;;35.63;18.15;;;;;;;10.66;87.42;98593.47;5089061;28;20036;-88
2022/10/13 05:01:49;;;;;;;31.50;17.17;;;;;;;10.63;87.63;98598.31;5073528;28;20043;-89
2022/10/13 05:04:14;;;;;;;31.25;17.40;;;;;;;10.68;86.71;98590.69;5087115;28;20039;-87
2022/10/13 05:06:41;;;;;;;32.70;17.42;;;;;;;10.63;87.07;98593.06;5085794;28;20036;-90
2022/10/13 05:09:14;;;;;;;32.80;17.80;;;;;;;10.63;87.49;98600.94;5081676;28;20487;-90
2022/10/13 05:11:40;;;;;;;33.05;17.92;;;;;;;10.64;87.58;98594.69;5086473;28;20646;-90
2022/10/13 05:14:06;;;;;;;30.70;17.45;;;;;;;10.56;87.46;98593.00;5093666;28;20051;-89
2022/10/13 05:16:32;;;;;;;36.80;18.60;;;;;;;10.56;87.88;98598.25;5093075;28;20032;-89
2022/10/13 05:18:57;;;;;;;34.45;17.52;;;;;;;10.55;87.89;98595.78;5093996;28;20032;-89
2022/10/13 05:21:27;;;;;;;32.05;17.63;;;;;;;10.50;87.74;98598.19;5093352;28;20032;-90
2022/10/13 05:23:54;;;;;;;37.88;18.75;;;;;;;10.51;88.00;98598.00;5073586;28;20040;-87
2022/10/13 05:26:26;;;;;;;33.60;18.25;;;;;;;10.58;87.99;98596.25;5088558;28;20016;-89
2022/10/13 05:28:52;;;;;;;31.17;17.60;;;;;;;10.61;88.15;98589.78;5084329;28;20123;-89
2022/10/13 05:31:21;;;;;;;33.35;17.55;;;;;;;10.59;88.36;98589.19;5079885;28;20078;-91
2022/10/13 05:33:48;;;;;;;35.40;18.15;;;;;;;10.63;88.54;98603.56;5093911;28;20435;-88
2022/10/13 05:36:33;;;;;;;43.30;18.92;;;;;;;10.64;88.18;98597.31;5084167;28;20476;-82
2022/10/13 05:39:03;;;;;;;37.63;18.83;;;;;;;10.61;88.57;98602.91;5082156;28;20032;-82
2022/10/13 05:41:30;;;;;;;34.85;19.25;;;;;;;10.59;88.68;98604.91;5083034;28;20399;-82
2022/10/13 05:44:02;;;;;;;36.47;18.42;;;;;;;10.57;89.25;98601.69;5084007;28;20737;-82
2022/10/13 05:46:28;;;;;;;34.33;18.95;;;;;;;10.68;89.33;98588.06;5084592;28;20122;-82
2022/10/13 05:48:54;;;;;;;36.17;20.20;;;;;;;10.64;88.58;98595.50;5085695;28;20040;-83
2022/10/13 05:51:24;;;;;;;36.85;19.33;;;;;;;10.69;88.48;98602.81;5084996;28;20036;-83
2022/10/13 05:54:19;;;;;;;37.13;20.05;;;;;;;10.69;88.42;98592.31;5088245;28;20043;-83
2022/10/13 05:57:20;;;;;;;33.38;18.95;;;;;;;10.78;88.61;98606.91;5086156;28;20755;-83
2022/10/13 06:00:00;;;;;;;38.67;19.38;;;;;;;10.90;88.37;98615.09;5086703;28;20039;-83
2022/10/13 06:02:38;;;;;;;37.20;19.35;;;;;;;10.95;88.44;98603.03;5075326;28;21027;-83
2022/10/13 06:05:07;;;;;;;36.60;19.70;;;;;;;11.06;87.99;98604.34;5083889;28;20131;-83
2022/10/13 06:07:33;;;;;;;41.33;20.25;;;;;;;10.99;87.64;98592.97;5086919;28;20122;-82
2022/10/13 06:10:00;;;;;;;35.70;18.63;;;;;;;11.09;87.69;98601.31;5085634;28;20101;-82
2022/10/13 06:12:25;;;;;;;40.17;19.58;;;;;;;11.12;87.61;98602.75;5084569;28;20048;-83
2022/10/13 06:14:51;;;;;;;44.50;20.05;;;;;;;11.13;87.89;98609.63;5084482;28;20043;-83
2022/10/13 06:17:16;;;;;;;40.00;19.65;;;;;;;11.14;87.90;98611.25;5079610;28;20040;-89
2022/10/13 06:19:44;;;;;;;38.95;20.10;;;;;;;11.25;88.08;98611.53;5084350;28;20036;-88
2022/10/13 06:22:09;;;;;;;39.53;19.67;;;;;;;11.25;87.23;98598.41;5093162;28;20036;-89
2022/10/13 06:24:35;;;;;;;42.63;21.15;;;;;;;11.28;87.56;98607.75;5093203;28;20053;-88
2022/10/13 06:27:00;;;;;;;42.88;21.25;;;;;;;11.34;87.53;98616.66;5091709;28;20042;-87
2022/10/13 06:29:26;;;;;;;40.50;19.67;;;;;;;11.26;87.48;98607.91;5090105;28;20028;-82
2022/10/13 06:31:51;;;;;;;40.10;19.75;;;;;;;11.24;87.51;98614.38;5083529;28;20515;-83
2022/10/13 06:34:17;;;;;;;45.00;21.70;;;;;;;11.28;87.75;98617.44;5081506;28;20044;-83
2022/10/13 06:36:42;;;;;;;38.28;19.95;;;;;;;11.26;88.38;98614.97;5083508;28;20035;-82
2022/10/13 06:39:08;;;;;;;44.90;19.58;;;;;;;11.27;88.27;98621.84;5081458;28;20082;-83
2022/10/13 06:41:34;;;;;;;39.35;19.63;;;;;;;11.28;88.57;98623.50;5081489;28;20629;-83
2022/10/13 06:43:59;;;;;;;38.25;19.48;;;;;;;11.38;87.84;98616.06;5086404;28;20467;-83
2022/10/13 06:46:24;;;;;;;34.72;20.05;;;;;;;11.37;87.87;98606.56;5085622;28;20036;-83
2022/10/13 06:48:51;;;;;;;37.92;20.23;;;;;;;11.44;87.69;98617.94;5092402;28;20047;-87
2022/10/13 06:51:16;;;;;;;36.78;19.17;;;;;;;11.44;87.25;98617.94;5092940;28;20093;-88
2022/10/13 06:53:42;;;;;;;38.50;19.55;;;;;;;11.34;87.21;98609.59;5093440;28;20031;-87
2022/10/13 06:56:08;;;;;;;34.83;18.60;;;;;;;11.49;87.97;98614.72;5092279;28;20471;-88
2022/10/13 06:58:36;;;;;;;31.95;17.50;;;;;;;11.61;86.62;98607.13;5092169;28;20032;-88
2022/10/13 07:01:02;;;;;;;28.60;17.05;;;;;;;11.65;86.12;98598.66;5093232;28;20032;-88
2022/10/13 07:03:27;;;;;;;30.80;17.73;;;;;;;11.75;85.69;98614.06;5076556;28;20101;-88
2022/10/13 07:05:53;;;;;;;29.50;17.48;;;;;;;11.65;85.32;98603.13;5085000;28;20036;-88
2022/10/13 07:08:19;;;;;;;31.48;17.05;;;;;;;11.67;85.84;98607.16;5083269;28;20076;-87
2022/10/13 07:10:45;;;;;;;31.23;18.17;;;;;;;11.73;85.45;98608.19;5092558;28;20030;-88
2022/10/13 07:13:11;;;;;;;32.00;17.48;;;;;;;11.72;85.25;98594.25;5091111;28;20119;-87
2022/10/13 07:15:39;;;;;;;29.75;16.13;;;;;;;11.84;84.73;98604.25;5086623;28;20036;-87
2022/10/13 07:18:07;;;;;;;26.13;16.20;;;;;;;11.60;84.61;98600.25;5072108;28;20076;-87
2022/10/13 07:21:10;;;;;;;;;;;;;;;;;;;;;
2022/10/13 07:24:02;;;;;;;25.10;14.52;;;;;;;11.59;85.02;98590.75;5084916;28;20044;-83
2022/10/13 07:26:28;;;;;;;29.38;16.20;;;;;;;11.66;84.86;98610.78;5084203;28;20036;-85
2022/10/13 07:28:54;;;;;;;26.92;14.88;;;;;;;11.69;85.75;98613.03;5083305;28;20392;-83
2022/10/13 07:31:20;;;;;;;26.65;15.35;;;;;;;11.82;85.64;98604.44;5082265;28;20661;-83
2022/10/13 07:33:49;;;;;;;27.65;15.52;;;;;;;11.81;85.06;98613.31;5083238;28;20061;-83
2022/10/13 07:36:14;;;;;;;26.75;15.82;;;;;;;11.74;85.03;98591.41;5082490;28;20040;-83
2022/10/13 07:38:40;;;;;;;26.70;15.18;;;;;;;11.81;85.44;98613.31;5082449;28;20086;-83
2022/10/13 07:41:09;;;;;;;28.75;15.57;;;;;;;11.75;85.00;98611.44;5083316;28;20036;-82
2022/10/13 07:43:35;;;;;;;29.15;15.93;;;;;;;11.87;85.28;98617.78;5068394;28;20041;-83
2022/10/13 07:46:03;;;;;;;30.73;15.43;;;;;;;11.83;85.16;98615.78;5080008;28;20032;-82
2022/10/13 07:48:30;;;;;;;28.60;15.13;;;;;;;11.87;85.29;98617.78;5083168;28;20040;-83
2022/10/13 07:50:56;;;;;;;29.50;15.90;;;;;;;11.92;85.41;98614.59;5086381;28;20040;-83
2022/10/13 07:53:22;;;;;;;30.55;16.40;;;;;;;11.83;85.38;98610.50;5084086;28;20055;-82
2022/10/13 07:55:47;;;;;;;28.05;14.65;;;;;;;11.86;86.01;98616.19;5084449;28;20040;-83
2022/10/13 07:58:13;;;;;;;28.17;15.07;;;;;;;11.85;85.79;98611.94;5083443;28;20039;-83
2022/10/13 08:00:39;;;;;;;27.10;15.77;;;;;;;11.95;86.14;98607.13;5082920;28;20044;-83
2022/10/13 08:03:04;;;;;;;31.02;15.88;;;;;;;12.03;85.44;98612.22;5082273;28;20537;-83
2022/10/13 08:05:30;;;;;;;26.48;15.13;;;;;;;12.07;85.02;98598.69;5085679;28;20032;-83
2022/10/13 08:07:56;;;;;;;26.35;13.95;;;;;;;12.04;84.62;98608.56;5084971;28;20111;-83
2022/10/13 08:10:21;;;;;;;26.48;14.70;;;;;;;12.02;85.32;98602.72;5082533;28;20071;-83
2022/10/13 08:12:47;;;;;;;25.90;14.60;;;;;;;12.20;85.44;98606.63;5080855;28;20051;-83
2022/10/13 08:15:13;;;;;;;26.08;14.75;;;;;;;12.15;84.21;98603.78;5083654;28;20051;-83
2022/10/13 08:17:38;;;;;;;26.58;14.20;;;;;;;12.11;84.59;98611.22;5082569;28;20507;-83
2022/10/13 08:20:05;;;;;;;22.52;13.23;;;;;;;12.20;83.87;98612.69;5083580;28;20040;-83
2022/10/13 08:22:33;;;;;;;24.83;13.65;;;;;;;12.23;84.15;98603.59;5082537;28;20167;-83
2022/10/13 08:25:00;;;;;;;24.25;12.93;;;;;;;12.34;83.29;98610.91;5082709;28;20353;-83
2022/10/13 08:27:27;;;;;;;25.42;14.10;;;;;;;12.40;83.58;98604.03;5078266;28;20032;-83
2022/10/13 08:29:53;;;;;;;23.08;14.07;;;;;;;12.45;83.86;98609.53;5082882;28;20363;-83
2022/10/13 08:32:20;;;;;;;22.75;12.90;;;;;;;12.36;83.07;98611.53;5082576;28;21068;-83
2022/10/13 08:34:48;;;;;;;25.60;14.15;;;;;;;12.49;84.03;98611.56;5079445;28;20033;-83
2022/10/13 08:37:16;;;;;;;21.83;13.05;;;;;;;12.44;83.05;98608.72;5081558;28;20037;-83
2022/10/13 08:39:42;;;;;;;23.23;13.90;;;;;;;12.36;83.25;98610.72;5081795;28;20032;-83
2022/10/13 08:42:18;;;;;;;23.67;14.05;;;;;;;12.14;84.40;98616.09;5080709;28;20526;-83
2022/10/13 08:44:52;;;;;;;27.02;13.85;;;;;;;12.04;86.35;98615.66;5076100;28;20089;-83
2022/10/13 08:47:34;;;;;;;25.48;13.50;;;;;;;11.96;85.79;98610.56;5083326;28;20027;-83
2022/10/13 08:50:11;;;;;;;28.40;14.70;;;;;;;12.09;85.92;98607.19;5082073;28;20028;-82
2022/10/13 08:53:01;;;;;;;24.10;13.68;;;;;;;12.16;85.88;98600.94;5081536;28;20123;-83
2022/10/13 08:55:43;;;;;;;25.73;13.83;;;;;;;12.21;85.66;98602.97;5081486;28;20975;-82
2022/10/13 08:58:21;;;;;;;22.45;13.70;;;;;;;12.25;84.96;98606.84;5081947;28;20032;-83
2022/10/13 09:00:47;;;;;;;28.17;14.25;;;;;;;12.29;85.12;98594.91;5074813;28;20044;-82
2022/10/13 09:03:25;;;;;;;27.33;15.38;;;;;;;12.38;85.18;98600.81;5077682;28;20526;-82
2022/10/13 09:06:16;;;;;;;22.17;13.52;;;;;;;12.35;85.14;98598.56;5072560;28;20036;-83
2022/10/13 09:09:05;;;;;;;;;;;;;;;12.45;84.95;98607.69;5079651;28;20131;-86
2022/10/13 09:11:38;;;;;;;27.95;13.65;;;;;;;12.53;84.14;98597.00;5076432;28;19927;-82
2022/10/13 09:14:18;;;;;;;24.52;14.27;;;;;;;12.55;84.13;98607.31;5073518;28;20504;-83
2022/10/13 09:16:44;;;;;;;27.55;14.43;;;;;;;12.49;84.19;98606.31;5075888;28;20085;-82
2022/10/13 09:19:24;;;;;;;26.38;13.85;;;;;;;12.59;84.34;98606.72;5075309;28;20036;-83
2022/10/13 09:21:52;;;;;;;26.58;13.98;;;;;;;12.62;84.06;98604.69;5073958;28;20040;-83
2022/10/13 09:24:21;;;;;;;27.35;14.43;;;;;;;12.64;83.69;98594.78;5091496;28;20184;-82
2022/10/13 09:26:51;;;;;;;24.42;14.10;;;;;;;12.69;84.23;98589.72;5075063;28;20040;-82
2022/10/13 09:29:25;;;;;;;25.27;13.85;;;;;;;12.81;83.99;98585.47;5077292;28;20085;-82
2022/10/13 09:32:14;;;;;;;27.45;14.40;;;;;;;12.99;83.98;98580.44;5072105;28;20300;-83
2022/10/13 09:34:40;;;;;;;23.38;13.60;;;;;;;13.07;82.04;98577.59;5074601;28;20123;-83
2022/10/13 09:37:21;;;;;;;26.77;13.82;;;;;;;13.18;81.93;98581.41;5074094;28;20115;-83
2022/10/13 09:40:00;;;;;;;;;;;;;;;13.13;81.70;98581.22;5078513;28;20031;-82
2022/10/13 09:42:30;;;;;;;25.25;13.18;;;;;;;13.25;82.14;98582.25;5075634;28;20271;-83
2022/10/13 09:45:12;;;;;;;25.00;13.57;;;;;;;13.31;81.31;98578.00;5075948;28;20040;-83
2022/10/13 09:47:38;;;;;;;24.90;14.20;;;;;;;13.19;80.67;98564.59;5073368;28;20040;-83
2022/10/13 09:50:19;;;;;;;24.85;15.35;;;;;;;13.46;81.22;98583.84;5075826;28;20581;-83
2022/10/13 09:52:47;;;;;;;25.00;12.77;;;;;;;13.51;80.77;98583.25;5077024;28;20120;-83
2022/10/13 09:55:34;;;;;;;22.60;13.52;;;;;;;13.52;80.78;98585.66;5075689;28;20044;-82
2022/10/13 09:58:18;;;;;;;23.38;13.45;;;;;;;13.40;81.59;98592.59;5077956;28;20036;-82
2022/10/13 10:00:47;;;;;;;24.02;12.95;;;;;;;13.37;80.62;98595.59;5080057;28;20103;-82
2022/10/13 10:03:34;;;;;;;26.58;14.10;;;;;;;13.32;82.38;98579.63;5080930;28;20065;-83
2022/10/13 10:06:05;;;;;;;23.60;13.43;;;;;;;13.52;81.93;98587.50;5083984;28;20039;-83
2022/10/13 10:08:52;;;;;;;23.65;13.95;;;;;;;13.44;81.26;98588.53;5078641;28;20109;-83
2022/10/13 10:11:29;;;;;;;25.88;15.27;;;;;;;13.43;80.81;98593.97;5083525;28;20035;-83
2022/10/13 10:14:10;;;;;;;26.38;13.93;;;;;;;13.38;81.14;98594.63;5083724;28;20419;-83
2022/10/13 10:16:48;;;;;;;26.67;14.10;;;;;;;13.33;81.97;98586.50;5082915;28;20063;-83
2022/10/13 10:19:23;;;;;;;29.23;15.32;;;;;;;13.39;81.25;98590.97;5083746;28;20067;-83
2022/10/13 10:22:15;;;;;;;25.52;15.32;;;;;;;13.52;80.80;98590.13;5080674;28;20059;-83
2022/10/13 10:25:34;;;;;;;31.90;14.50;;;;;;;13.74;81.16;98580.16;5081754;28;20036;-83
2022/10/13 10:28:27;;;;;;;24.75;14.35;;;;;;;13.74;80.13;98573.03;5081840;28;20044;-83
2022/10/13 10:31:26;;;;;;;24.67;14.65;;;;;;;13.63;80.47;98565.78;5082537;28;20036;-83
2022/10/13 10:34:35;;;;;;;25.67;15.07;;;;;;;13.76;79.74;98565.72;5079499;28;20592;-83
2022/10/13 10:37:24;;;;;;;25.05;14.23;;;;;;;13.92;80.27;98564.47;5085430;28;20032;-83
2022/10/13 10:40:22;;;;;;;28.83;15.05;;;;;;;13.91;79.80;98563.66;5099633;28;20388;-83
2022/10/13 10:43:07;;;;;;;28.50;15.30;;;;;;;14.14;79.53;98551.75;5085284;28;20561;-83
2022/10/13 10:45:38;;;;;;;25.40;15.20;;;;;;;14.25;78.58;98558.19;5079955;28;20028;-83
2022/10/13 10:48:20;;;;;;;25.80;15.25;;;;;;;14.19;79.29;98560.66;5078374;28;20103;-83
2022/10/13 10:50:47;;;;;;;26.40;14.88;;;;;;;14.37;78.45;98540.66;5085767;28;20051;-83
2022/10/13 10:53:21;;;;;;;28.00;14.55;;;;;;;14.64;77.43;98552.72;5086185;28;20032;-83
2022/10/13 10:55:57;;;;;;;31.20;15.82;;;;;;;14.37;78.49;98549.38;5097815;28;21538;-83
2022/10/13 10:58:48;;;;;;;27.90;15.32;;;;;;;14.32;79.20;98548.41;5079849;28;20462;-83
2022/10/13 11:01:50;;;;;;;29.42;15.38;;;;;;;14.57;79.17;98544.00;5085282;28;20579;-84
2022/10/13 11:04:34;;;;;;;27.48;14.95;;;;;;;14.84;77.38;98523.50;5078351;28;20032;-83
2022/10/13 11:07:01;;;;;;;27.58;14.63;;;;;;;14.99;76.61;98523.97;5084275;28;20042;-84
2022/10/13 11:09:42;;;;;;;25.73;13.85;;;;;;;15.12;76.35;98515.13;5084350;28;20040;-83
2022/10/13 11:12:20;;;;;;;27.75;14.25;;;;;;;15.06;75.26;98518.63;5083570;28;20032;-83
2022/10/13 11:15:00;;;;;;;26.60;14.75;;;;;;;15.23;76.38;98513.56;5077017;28;20045;-83
2022/10/13 11:17:38;;;;;;;26.85;15.00;;;;;;;15.11;74.97;98510.03;5083098;28;20108;-83
2022/10/13 11:20:19;;;;;;;29.33;15.85;;;;;;;14.72;77.05;98517.31;5083058;28;20108;-84
2022/10/13 11:23:11;;;;;;;28.73;14.55;;;;;;;14.90;78.61;98513.91;5081927;28;20545;-83
2022/10/13 11:25:42;;;;;;;22.63;13.52;;;;;;;15.10;76.51;98514.50;5075641;28;20464;-83
2022/10/13 11:28:22;;;;;;;;;;;;;;;15.05;77.06;98518.84;5082206;28;20165;-83
2022/10/13 11:30:50;;;;;;;27.50;14.77;;;;;;;15.27;76.24;98515.56;5079508;28;20420;-84
2022/10/13 11:33:37;;;;;;;24.70;14.93;;;;;;;15.09;75.80;98512.09;5074937;28;20165;-83
2022/10/13 11:36:33;;;;;;;26.13;14.40;;;;;;;15.00;75.94;98514.22;5080625;28;20032;-83
2022/10/13 11:39:22;;;;;;;24.73;15.60;;;;;;;15.10;76.62;98514.50;5084347;28;20413;-83
2022/10/13 11:42:32;;;;;;;24.88;14.57;;;;;;;15.07;75.44;98508.88;5080094;28;20028;-83